createdAt,value
2022-10-11T00:04:26.293Z,100400.09
2022-10-11T00:09:29.806Z,100395.58
2022-10-11T00:14:34.346Z,100400.89
2022-10-11T00:19:37.346Z,100396.18
2022-10-11T00:24:40.657Z,100394.35
2022-10-11T00:29:43.559Z,100400.13
2022-10-11T00:34:46.769Z,100393.92
2022-10-11T00:39:50.078Z,100397.80
2022-10-11T00:45:12.945Z,100396.92
2022-10-11T00:50:17.599Z,100392.82
2022-10-11T00:55:22.742Z,100394.27
2022-10-11T01:00:25.949Z,100390.61
2022-10-11T01:05:30.761Z,100382.31
2022-10-11T01:10:34.428Z,100382.31
2022-10-11T01:15:56.362Z,100382.05
2022-10-11T01:21:18.619Z,100381.65
2022-10-11T01:26:47.213Z,100384.13
2022-10-11T01:32:07.689Z,100374.83
2022-10-11T01:37:19.336Z,100371.83
2022-10-11T01:42:23.738Z,100370.11
2022-10-11T01:47:27.187Z,100366.36
2022-10-11T01:52:34.582Z,100357.61
2022-10-11T01:57:55.721Z,100358.84
2022-10-11T02:03:06.262Z,100363.23
2022-10-11T02:08:34.720Z,100363.67
2022-10-11T02:13:49.276Z,100359.23
2022-10-11T02:18:55.862Z,100363.88
2022-10-11T02:24:27.949Z,100369.89
2022-10-11T02:29:36.172Z,100368.47
2022-10-11T02:35:00.167Z,100377.27
2022-10-11T02:40:06.756Z,100381.20
2022-10-11T02:45:25.331Z,100375.50
2022-10-11T02:50:28.948Z,100374.29
2022-10-11T02:55:32.866Z,100377.67
2022-10-11T03:00:36.086Z,100381.17
2022-10-11T03:05:41.844Z,100389.19
2022-10-11T03:10:45.561Z,100398.05
2022-10-11T03:16:02.816Z,100403.35
2022-10-11T03:21:07.236Z,100406.29
2022-10-11T03:26:10.248Z,100403.57
2022-10-11T03:31:13.553Z,100403.48
2022-10-11T03:36:17.172Z,100404.70
2022-10-11T03:41:20.682Z,100409.92
2022-10-11T03:46:23.787Z,100419.89
2022-10-11T03:51:27.097Z,100416.74
2022-10-11T03:56:30.409Z,100424.95
2022-10-11T04:01:38.205Z,100426.48
2022-10-11T04:06:41.797Z,100429.86
2022-10-11T04:11:44.872Z,100441.14
2022-10-11T04:16:48.053Z,100439.90
2022-10-11T04:21:51.247Z,100441.10
2022-10-11T04:26:54.416Z,100447.91
2022-10-11T04:31:57.561Z,100451.94
2022-10-11T04:37:00.645Z,100461.23
2022-10-11T04:42:04.344Z,100459.77
2022-10-11T04:47:08.018Z,100462.39
2022-10-11T04:52:11.126Z,100466.84
2022-10-11T04:57:14.946Z,100473.84
2022-10-11T05:02:18.605Z,100478.63
2022-10-11T05:07:21.566Z,100486.23
2022-10-11T05:12:25.389Z,100496.23
2022-10-11T05:17:28.509Z,100508.29
2022-10-11T05:22:31.805Z,100512.36
2022-10-11T05:27:35.029Z,100518.86
2022-10-11T05:32:38.035Z,100526.45
2022-10-11T05:37:41.570Z,100527.71
2022-10-11T05:42:44.668Z,100534.40
2022-10-11T05:47:47.790Z,100542.13
2022-10-11T05:52:51.090Z,100548.81
2022-10-11T05:57:55.230Z,100560.21
2022-10-11T06:02:58.343Z,100562.98
2022-10-11T06:08:01.639Z,100572.33
2022-10-11T06:13:05.366Z,100580.61
2022-10-11T06:18:08.436Z,100581.43
2022-10-11T06:23:11.427Z,100594.96
2022-10-11T06:28:14.595Z,100605.21
2022-10-11T06:33:17.946Z,100617.27
2022-10-11T06:38:21.357Z,100625.66
2022-10-11T06:43:25.697Z,100635.20
2022-10-11T06:48:28.903Z,100644.96
2022-10-11T06:53:32.150Z,100651.45
2022-10-11T06:58:35.919Z,100654.12
2022-10-11T07:03:39.189Z,100667.89
2022-10-11T07:08:42.387Z,100681.34
2022-10-11T07:14:08.185Z,100691.69
2022-10-11T07:19:11.406Z,100702.19
2022-10-11T07:24:14.806Z,100707.83
2022-10-11T07:29:18.665Z,100716.23
2022-10-11T07:34:23.107Z,100721.65
2022-10-11T07:39:26.223Z,100725.50
2022-10-11T07:44:29.232Z,100736.23
2022-10-11T07:49:32.997Z,100742.66
2022-10-11T07:54:36.055Z,100757.48
2022-10-11T07:59:39.588Z,100770.25
2022-10-11T08:04:42.567Z,100775.98
2022-10-11T08:09:45.572Z,100777.52
2022-10-11T08:14:49.240Z,100783.52
2022-10-11T08:19:52.862Z,100786.00
2022-10-11T08:24:56.046Z,100792.41
2022-10-11T08:29:59.439Z,100798.47
2022-10-11T08:35:02.480Z,100800.31
2022-10-11T08:40:07.415Z,100806.57
2022-10-11T08:45:24.569Z,100807.14
2022-10-11T08:50:27.731Z,100819.48
2022-10-11T08:55:48.382Z,100828.43
2022-10-11T09:00:57.645Z,100836.69
2022-10-11T09:06:21.692Z,100844.58
2022-10-11T09:12:02.812Z,100848.11
2022-10-11T09:17:17.919Z,100852.97
2022-10-11T09:22:30.450Z,100855.42
2022-10-11T09:28:02.223Z,100865.10
2022-10-11T09:33:17.564Z,100861.86
2022-10-11T09:38:43.388Z,100866.89
2022-10-11T09:43:52.602Z,100871.34
2022-10-11T09:48:57.632Z,100877.30
2022-10-11T09:54:05.069Z,100886.48
2022-10-11T09:59:29.976Z,100888.04
2022-10-11T10:04:33.594Z,100891.13
2022-10-11T10:09:36.687Z,100891.25
2022-10-11T10:14:41.445Z,100891.80
2022-10-11T10:19:54.380Z,100897.59
2022-10-11T10:24:59.185Z,100897.77
2022-10-11T10:30:09.811Z,100903.38
2022-10-11T10:35:35.341Z,100905.05
2022-10-11T10:40:49.743Z,100907.70
2022-10-11T10:46:10.077Z,100921.95
2022-10-11T10:51:29.385Z,100928.34
2022-10-11T10:56:41.631Z,100927.01
2022-10-11T11:02:38.916Z,100927.91
2022-10-11T11:08:05.896Z,100922.65
2022-10-11T11:13:28.938Z,100922.20
2022-10-11T11:19:01.844Z,100927.84
2022-10-11T11:24:13.755Z,100935.51
2022-10-11T11:29:43.808Z,100938.95
2022-10-11T11:34:51.302Z,100938.14
2022-10-11T11:40:14.375Z,100940.79
2022-10-11T11:45:28.457Z,100944.12
2022-10-11T11:50:45.977Z,100942.81
2022-10-11T11:56:04.641Z,100942.96
2022-10-11T12:01:26.457Z,100943.10
2022-10-11T12:06:43.739Z,100941.21
2022-10-11T12:12:01.133Z,100945.40
2022-10-11T12:17:20.659Z,100945.32
2022-10-11T12:22:26.948Z,100945.29
2022-10-11T12:27:43.516Z,100943.05
2022-10-11T12:32:49.663Z,100945.23
2022-10-11T12:38:23.201Z,100944.63
2022-10-11T12:43:36.695Z,100950.36
2022-10-11T12:48:56.141Z,100952.14
2022-10-11T12:54:36.760Z,100951.44
2022-10-11T12:59:45.038Z,100953.65
2022-10-11T13:04:48.096Z,100964.20
2022-10-11T13:09:54.653Z,100966.42
2022-10-11T13:15:05.156Z,100971.49
2022-10-11T13:20:17.921Z,100984.64
2022-10-11T13:25:27.687Z,100991.52
2022-10-11T13:30:34.874Z,100992.42
2022-10-11T13:35:39.516Z,100991.52
2022-10-11T13:40:45.315Z,100985.52
2022-10-11T13:45:51.021Z,100981.27
2022-10-11T13:51:27.250Z,100985.20
2022-10-11T13:56:35.326Z,100994.77
2022-10-11T14:01:41.097Z,100992.92
2022-10-11T14:06:46.900Z,100989.65
2022-10-11T14:11:51.094Z,100993.33
2022-10-11T14:17:04.425Z,100994.81
2022-10-11T14:22:17.813Z,100993.77
2022-10-11T14:27:23.982Z,100998.91
2022-10-11T14:32:32.891Z,101000.14
2022-10-11T14:37:36.218Z,101005.35
2022-10-11T14:42:39.514Z,101010.76
2022-10-11T14:47:43.347Z,101016.42
2022-10-11T14:52:47.623Z,101019.98
2022-10-11T14:57:50.821Z,101019.15
2022-10-11T15:02:55.383Z,101024.90
2022-10-11T15:07:58.606Z,101030.72
2022-10-11T15:13:02.810Z,101035.03
2022-10-11T15:18:08.113Z,101041.95
2022-10-11T15:23:12.396Z,101048.88
2022-10-11T15:28:42.779Z,101047.10
2022-10-11T15:33:46.871Z,101052.26
2022-10-11T15:38:50.696Z,101053.77
2022-10-11T15:43:53.961Z,101061.98
2022-10-11T15:48:57.145Z,101067.92
2022-10-11T15:54:00.268Z,101069.98
2022-10-11T15:59:03.385Z,101073.73
2022-10-11T16:04:07.576Z,101085.23
2022-10-11T16:09:10.965Z,101087.52
2022-10-11T16:14:13.983Z,101089.69
2022-10-11T16:19:17.110Z,101093.98
2022-10-11T16:24:20.303Z,101103.52
2022-10-11T16:29:24.549Z,101104.22
2022-10-11T16:34:28.282Z,101103.96
2022-10-11T16:39:33.850Z,101107.98
2022-10-11T16:44:38.821Z,101106.98
2022-10-11T16:49:42.737Z,101105.13
2022-10-11T16:54:47.726Z,101104.89
2022-10-11T16:59:51.437Z,101103.40
2022-10-11T17:04:55.372Z,101102.33
2022-10-11T17:10:01.948Z,101108.18
2022-10-11T17:15:07.825Z,101115.37
2022-10-11T17:20:13.641Z,101119.89
2022-10-11T17:25:17.955Z,101123.14
2022-10-11T17:30:23.083Z,101128.47
2022-10-11T17:35:33.776Z,101130.05
2022-10-11T17:40:38.710Z,101124.75
2022-10-11T17:45:43.547Z,101122.57
2022-10-11T17:50:50.613Z,101129.42
2022-10-11T17:55:54.848Z,101133.08
2022-10-11T18:01:07.332Z,101131.27
2022-10-11T18:06:13.706Z,101130.77
2022-10-11T18:11:19.882Z,101133.38
2022-10-11T18:16:29.330Z,101141.34
2022-10-11T18:21:34.736Z,101147.38
2022-10-11T18:26:39.329Z,101146.00
2022-10-11T18:31:45.006Z,101147.94
2022-10-11T18:36:49.023Z,101152.24
2022-10-11T18:41:53.050Z,101150.79
2022-10-11T18:46:56.693Z,101152.56
2022-10-11T18:52:00.282Z,101156.08
2022-10-11T18:57:03.903Z,101155.98
2022-10-11T19:02:08.237Z,101158.38
2022-10-11T19:07:11.545Z,101167.88
2022-10-11T19:12:15.777Z,101166.61
2022-10-11T19:17:23.591Z,101168.90
2022-10-11T19:22:28.242Z,101167.83
2022-10-11T19:27:31.854Z,101163.70
2022-10-11T19:32:36.704Z,101165.92
2022-10-11T19:37:40.012Z,101163.63
2022-10-11T19:42:43.251Z,101167.93
2022-10-11T19:47:46.776Z,101171.98
2022-10-11T19:52:49.957Z,101174.92
2022-10-11T19:57:53.326Z,101178.52
2022-10-11T20:02:56.783Z,101178.00
2022-10-11T20:08:00.179Z,101177.16
2022-10-11T20:13:03.687Z,101181.95
2022-10-11T20:18:06.668Z,101185.63
2022-10-11T20:23:12.579Z,101191.86
2022-10-11T20:28:17.931Z,101194.66
2022-10-11T20:33:21.996Z,101191.63
2022-10-11T20:38:25.871Z,101191.90
2022-10-11T20:43:29.119Z,101195.23
2022-10-11T20:48:32.463Z,101190.15
2022-10-11T20:53:37.762Z,101190.34
2022-10-11T20:58:42.373Z,101191.75
2022-10-11T21:03:46.085Z,101193.50
2022-10-11T21:08:49.448Z,101194.15
2022-10-11T21:13:57.246Z,101188.21
2022-10-11T21:19:02.049Z,101189.08
2022-10-11T21:24:05.920Z,101189.27
2022-10-11T21:29:09.234Z,101191.58
2022-10-11T21:34:12.432Z,101188.67
2022-10-11T21:39:16.156Z,101192.42
2022-10-11T21:44:19.361Z,101194.88
2022-10-11T21:49:22.503Z,101194.30
2022-10-11T21:54:25.534Z,101196.77
2022-10-11T21:59:29.307Z,101201.23
2022-10-11T22:04:33.534Z,101208.02
2022-10-11T22:09:38.373Z,101209.33
2022-10-11T22:14:42.094Z,101207.46
2022-10-11T22:19:45.515Z,101202.38
2022-10-11T22:24:49.432Z,101204.66
2022-10-11T22:29:52.536Z,101203.71
2022-10-11T22:34:55.642Z,101206.06
2022-10-11T22:39:58.749Z,101201.91
2022-10-11T22:45:01.957Z,101201.44
2022-10-11T22:50:05.790Z,101202.25
2022-10-11T22:55:09.553Z,101204.56
2022-10-11T23:00:13.632Z,101206.83
2022-10-11T23:05:17.143Z,101206.02
2022-10-11T23:10:20.762Z,101206.55
2022-10-11T23:15:24.685Z,101210.50
2022-10-11T23:20:27.894Z,101205.29
2022-10-11T23:25:31.102Z,101210.82
2022-10-11T23:30:35.541Z,101211.59
2022-10-11T23:35:38.751Z,101214.23
2022-10-11T23:40:42.878Z,101217.34
2022-10-11T23:45:46.084Z,101222.92
2022-10-11T23:50:49.190Z,101223.30
2022-10-11T23:55:52.601Z,101223.16
